Time;durP1;ratioP1;P1;durP2;ratioP2;P2;SDS_P1;SDS_P2;PMS_P1;PMS_P2;Temp;Humidity;BMP_temperature;BMP_pressure;BME280_temperature;BME280_humidity;BME280_pressure;Samples;Min_cycle;Max_cycle;Signal;HPM_P1;HPM_P2
2023/06/04 00:00:51;;;;;;;6.47;4.80;;;16.20;79.30;;;;;;5064743;28;20481;-59
2023/06/04 00:03:18;;;;;;;7.83;7.00;;;16.20;79.30;;;;;;5055188;28;21017;-59
2023/06/04 00:05:46;;;;;;;7.80;5.83;;;16.10;79.50;;;;;;5068078;28;20506;-59
2023/06/04 00:08:13;;;;;;;5.60;4.93;;;16.10;79.80;;;;;;5057008;28;20986;-59
2023/06/04 00:10:40;;;;;;;9.43;5.30;;;16.00;79.60;;;;;;5075433;28;20605;-59
2023/06/04 00:13:07;;;;;;;6.17;4.60;;;16.00;79.90;;;;;;5063763;28;20487;-59
2023/06/04 00:15:34;;;;;;;5.80;5.30;;;15.90;79.40;;;;;;5066454;28;21042;-59
2023/06/04 00:18:00;;;;;;;5.47;4.97;;;15.90;79.00;;;;;;5066083;28;20483;-59
2023/06/04 00:20:27;;;;;;;9.80;4.53;;;15.80;79.30;;;;;;5063062;28;20545;-59
2023/06/04 00:22:55;;;;;;;6.60;4.70;;;15.80;79.60;;;;;;5080487;28;20472;-59
2023/06/04 00:25:23;;;;;;;6.03;3.87;;;15.70;78.90;;;;;;5053213;28;20508;-59
2023/06/04 00:27:49;;;;;;;8.30;3.60;;;15.70;79.90;;;;;;5067355;28;20521;-59
2023/06/04 00:30:16;;;;;;;5.40;4.07;;;15.70;80.40;;;;;;5054351;28;20506;-59
2023/06/04 00:32:43;;;;;;;6.80;4.27;;;15.70;80.00;;;;;;5067905;28;20566;-59
2023/06/04 00:35:10;;;;;;;5.30;4.43;;;15.70;80.00;;;;;;5066028;28;20547;-59
2023/06/04 00:37:37;;;;;;;6.00;4.10;;;15.70;79.90;;;;;;5063629;28;20552;-59
2023/06/04 00:40:06;;;;;;;4.13;3.73;;;15.60;79.70;;;;;;5062304;28;20547;-59
2023/06/04 00:42:33;;;;;;;4.50;3.40;;;15.60;79.70;;;;;;5068406;28;20784;-59
2023/06/04 00:45:00;;;;;;;4.83;4.33;;;15.60;79.50;;;;;;5077827;28;21058;-59
2023/06/04 00:47:28;;;;;;;5.20;3.30;;;15.60;79.30;;;;;;5066144;28;20497;-59
2023/06/04 00:49:58;;;;;;;6.63;4.30;;;15.50;79.30;;;;;;5065578;28;20486;-59
2023/06/04 00:52:57;;;;;;;5.40;3.80;;;15.50;79.70;;;;;;5069617;28;21049;-58
2023/06/04 00:55:25;;;;;;;4.80;4.10;;;15.40;79.80;;;;;;5067749;28;20479;-59
2023/06/04 00:57:52;;;;;;;5.67;4.10;;;15.40;79.30;;;;;;5061591;28;20479;-58
2023/06/04 01:00:20;;;;;;;9.90;4.33;;;15.40;78.80;;;;;;5060811;28;20968;-59
2023/06/04 01:02:50;;;;;;;4.80;3.70;;;15.40;79.50;;;;;;5078978;28;20764;-59
2023/06/04 01:05:25;;;;;;;5.53;4.30;;;15.30;78.80;;;;;;5072130;27;20562;-58
2023/06/04 01:07:54;;;;;;;5.77;4.27;;;15.30;79.00;;;;;;5066126;28;20545;-59
2023/06/04 01:10:22;;;;;;;4.43;4.00;;;15.20;78.90;;;;;;5059455;28;20481;-58
2023/06/04 01:12:50;;;;;;;4.63;4.13;;;15.20;79.30;;;;;;5060839;28;20555;-59
2023/06/04 01:15:17;;;;;;;6.17;4.43;;;15.20;79.60;;;;;;5067646;28;20584;-59
2023/06/04 01:17:47;;;;;;;6.30;3.83;;;15.20;79.10;;;;;;5064667;28;20474;-59
2023/06/04 01:20:23;;;;;;;3.70;3.10;;;15.20;79.10;;;;;;5045690;28;20482;-59
2023/06/04 01:23:06;;;;;;;7.60;3.70;;;15.10;78.60;;;;;;5041472;28;20477;-59
2023/06/04 01:25:37;;;;;;;3.67;3.03;;;15.10;78.60;;;;;;5071924;28;20475;-59
2023/06/04 01:28:07;;;;;;;4.97;4.20;;;15.10;78.50;;;;;;5058979;28;20478;-58
2023/06/04 01:30:43;;;;;;;6.13;3.90;;;15.00;78.40;;;;;;5076437;28;20491;-58
2023/06/04 01:33:11;;;;;;;6.20;3.80;;;15.00;78.30;;;;;;5060085;28;21124;-58
2023/06/04 01:35:38;;;;;;;5.13;4.03;;;14.90;78.60;;;;;;5064876;28;20540;-59
2023/06/04 01:38:05;;;;;;;10.33;3.90;;;14.90;78.50;;;;;;5066048;28;20483;-59
2023/06/04 01:40:31;;;;;;;4.27;3.57;;;14.80;78.40;;;;;;5065599;28;20481;-59
2023/06/04 01:42:59;;;;;;;9.13;4.13;;;15.10;78.60;;;;;;5056267;28;20962;-59
2023/06/04 01:45:28;;;;;;;4.70;4.20;;;14.70;78.50;;;;;;5081750;28;21152;-59
2023/06/04 01:47:56;;;;;;;7.10;3.70;;;14.80;79.20;;;;;;5060910;28;21002;-59
2023/06/04 01:50:23;;;;;;;6.43;4.70;;;14.80;78.90;;;;;;5065170;28;20475;-59
2023/06/04 01:52:50;;;;;;;4.90;3.77;;;14.70;78.70;;;;;;5067383;28;20480;-59
2023/06/04 01:55:18;;;;;;;5.50;3.77;;;14.70;78.50;;;;;;5054193;28;20475;-59
2023/06/04 01:57:47;;;;;;;5.60;4.40;;;14.70;79.00;;;;;;5054112;28;20475;-59
2023/06/04 02:00:14;;;;;;;4.80;4.13;;;14.70;78.40;;;;;;5064863;28;20919;-59
2023/06/04 02:02:43;;;;;;;5.43;3.50;;;14.60;77.90;;;;;;5066528;28;20477;-58
2023/06/04 02:05:11;;;;;;;9.40;4.37;;;14.60;78.60;;;;;;5065979;28;20471;-58
2023/06/04 02:07:39;;;;;;;4.80;4.30;;;14.60;78.40;;;;;;5066445;28;20508;-58
2023/06/04 02:10:07;;;;;;;4.67;3.63;;;14.50;78.40;;;;;;5065276;28;20975;-59
2023/06/04 02:12:36;;;;;;;8.83;3.30;;;14.50;78.40;;;;;;5065648;28;21482;-58
2023/06/04 02:15:04;;;;;;;4.40;3.27;;;14.50;78.20;;;;;;5064059;28;20474;-58
2023/06/04 02:17:32;;;;;;;5.07;4.27;;;14.50;77.60;;;;;;5030293;28;20856;-58
2023/06/04 02:20:00;;;;;;;3.93;3.50;;;14.40;78.10;;;;;;5077845;28;20865;-58
2023/06/04 02:22:27;;;;;;;3.90;3.00;;;14.40;77.80;;;;;;5050839;28;21174;-59
2023/06/04 02:24:54;;;;;;;5.07;4.57;;;14.40;77.80;;;;;;5070909;28;20494;-58
2023/06/04 02:27:21;;;;;;;5.80;4.27;;;14.40;77.90;;;;;;5057146;28;20562;-58
2023/06/04 02:29:48;;;;;;;5.80;4.37;;;14.30;77.50;;;;;;5066342;28;20500;-58
2023/06/04 02:32:15;;;;;;;6.07;3.90;;;14.40;78.90;;;;;;5066304;28;20478;-58
2023/06/04 02:34:42;;;;;;;3.97;3.30;;;14.30;78.80;;;;;;5077658;28;20539;-58
2023/06/04 02:37:10;;;;;;;4.63;3.70;;;14.30;78.50;;;;;;5062755;28;20865;-59
2023/06/04 02:39:37;;;;;;;4.27;3.10;;;14.30;78.40;;;;;;5066408;28;20744;-59
2023/06/04 02:42:04;;;;;;;5.77;3.70;;;14.30;78.80;;;;;;5060747;28;20482;-58
2023/06/04 02:44:31;;;;;;;3.47;3.03;;;14.20;78.20;;;;;;5065584;28;20481;-58
2023/06/04 02:46:58;;;;;;;3.77;3.43;;;14.20;79.20;;;;;;5056762;28;21470;-59
2023/06/04 02:49:25;;;;;;;5.40;3.27;;;14.10;79.30;;;;;;5028934;28;20713;-58
2023/06/04 02:51:52;;;;;;;6.73;3.80;;;14.10;78.70;;;;;;5056228;28;20547;-58
2023/06/04 02:54:20;;;;;;;9.30;3.70;;;14.10;78.70;;;;;;5070175;28;20466;-58
2023/06/04 02:56:48;;;;;;;9.27;3.80;;;14.00;78.70;;;;;;5055418;28;20485;-58
2023/06/04 02:59:15;;;;;;;4.83;4.33;;;14.00;78.60;;;;;;5066809;28;20599;-57
2023/06/04 03:01:43;;;;;;;4.50;3.00;;;14.00;78.70;;;;;;5065837;28;20648;-58
2023/06/04 03:04:14;;;;;;;3.60;3.10;;;14.00;78.40;;;;;;5064286;28;20581;-58
2023/06/04 03:06:44;;;;;;;3.23;2.70;;;14.00;78.00;;;;;;5060613;28;20485;-58
2023/06/04 03:09:11;;;;;;;3.60;3.27;;;14.00;78.00;;;;;;5073323;28;20481;-58
2023/06/04 03:11:39;;;;;;;7.10;3.43;;;14.00;78.30;;;;;;5067746;28;20578;-58
2023/06/04 03:14:06;;;;;;;6.60;2.97;;;14.00;77.60;;;;;;5066475;28;20558;-58
2023/06/04 03:16:33;;;;;;;3.73;3.33;;;14.00;78.70;;;;;;5066973;28;20870;-58
2023/06/04 03:19:01;;;;;;;6.63;3.40;;;14.00;79.20;;;;;;5051519;28;21004;-58
2023/06/04 03:21:28;;;;;;;7.03;3.53;;;13.90;78.50;;;;;;5054425;28;20834;-58
2023/06/04 03:23:55;;;;;;;11.43;3.70;;;13.90;78.70;;;;;;5052330;28;20481;-58
2023/06/04 03:26:22;;;;;;;6.30;3.17;;;13.90;78.50;;;;;;5069402;28;21037;-58
2023/06/04 03:28:50;;;;;;;5.30;3.10;;;13.90;78.80;;;;;;5064773;28;20831;-59
2023/06/04 03:31:18;;;;;;;4.73;3.47;;;13.90;78.40;;;;;;5042959;28;20756;-59
2023/06/04 03:33:45;;;;;;;3.80;3.07;;;14.00;78.00;;;;;;5068899;28;20483;-59
2023/06/04 03:36:11;;;;;;;4.23;3.50;;;13.90;78.30;;;;;;5061030;28;20993;-59
2023/06/04 03:38:38;;;;;;;7.10;3.30;;;14.00;78.40;;;;;;5067257;28;20684;-58
2023/06/04 03:41:05;;;;;;;6.07;3.20;;;13.90;79.00;;;;;;5061970;28;20482;-59
2023/06/04 03:43:32;;;;;;;3.47;3.17;;;13.50;77.90;;;;;;5059472;28;21894;-59
2023/06/04 03:46:00;;;;;;;6.73;3.70;;;13.90;78.80;;;;;;5059881;28;20826;-59
2023/06/04 03:48:27;;;;;;;4.00;3.10;;;13.90;79.30;;;;;;5044162;28;20486;-59
2023/06/04 03:50:54;;;;;;;16.73;3.50;;;13.80;79.60;;;;;;5073817;28;20477;-59
2023/06/04 03:53:20;;;;;;;13.80;4.10;;;13.70;80.20;;;;;;5054487;28;21033;-59
2023/06/04 03:55:47;;;;;;;3.60;2.90;;;13.60;79.70;;;;;;5057408;28;20485;-59
2023/06/04 03:58:14;;;;;;;3.70;2.77;;;13.50;79.30;;;;;;5059803;28;20478;-59
2023/06/04 04:00:41;;;;;;;6.30;3.57;;;13.40;80.00;;;;;;5073505;28;20512;-59
2023/06/04 04:03:09;;;;;;;3.57;3.27;;;13.40;80.00;;;;;;5059372;27;20469;-58
2023/06/04 04:05:36;;;;;;;5.40;3.00;;;13.30;80.50;;;;;;5077412;28;21015;-59
2023/06/04 04:08:04;;;;;;;4.23;2.83;;;13.40;81.00;;;;;;5066262;28;20482;-58
2023/06/04 04:10:30;;;;;;;6.23;4.20;;;13.30;81.00;;;;;;5063193;28;20496;-58
2023/06/04 04:12:58;;;;;;;4.77;3.47;;;13.40;80.60;;;;;;5065824;28;20477;-59
2023/06/04 04:15:25;;;;;;;7.83;3.27;;;13.40;81.10;;;;;;5063207;28;20643;-59
2023/06/04 04:17:52;;;;;;;2.70;2.30;;;13.50;80.50;;;;;;5064202;28;20836;-58
2023/06/04 04:20:20;;;;;;;3.90;3.00;;;13.50;80.30;;;;;;5061259;28;20485;-58
2023/06/04 04:22:47;;;;;;;6.33;2.70;;;13.60;80.40;;;;;;5067890;28;20481;-58
2023/06/04 04:25:14;;;;;;;5.87;3.90;;;13.60;80.80;;;;;;5065637;28;20498;-58
2023/06/04 04:27:41;;;;;;;4.57;2.63;;;13.70;81.30;;;;;;5066755;28;20577;-58
2023/06/04 04:30:09;;;;;;;3.50;3.20;;;13.70;81.50;;;;;;5066983;28;20471;-58
2023/06/04 04:32:38;;;;;;;3.80;3.10;;;13.80;81.50;;;;;;5064343;28;20481;-58
2023/06/04 04:35:07;;;;;;;4.97;3.27;;;13.80;81.30;;;;;;5067290;28;20721;-58
2023/06/04 04:37:38;;;;;;;4.57;2.90;;;13.90;81.90;;;;;;5063872;28;20477;-57
2023/06/04 04:40:09;;;;;;;6.93;3.10;;;14.00;81.90;;;;;;5066491;28;20523;-58
2023/06/04 04:42:36;;;;;;;4.53;2.93;;;14.00;80.90;;;;;;5066073;28;20489;-58
2023/06/04 04:45:04;;;;;;;8.47;3.30;;;14.10;80.30;;;;;;5062964;28;20493;-58
2023/06/04 04:47:31;;;;;;;3.80;2.53;;;14.10;80.00;;;;;;5043930;28;20956;-58
2023/06/04 04:49:57;;;;;;;4.03;2.87;;;14.10;79.30;;;;;;5071966;28;21471;-58
2023/06/04 04:52:24;;;;;;;8.00;3.37;;;14.20;79.40;;;;;;5058129;28;20565;-58
2023/06/04 04:54:55;;;;;;;4.10;2.90;;;14.30;79.50;;;;;;5045801;28;20475;-58
2023/06/04 04:57:22;;;;;;;3.97;3.27;;;14.30;78.90;;;;;;5073381;28;20903;-58
2023/06/04 04:59:49;;;;;;;6.50;2.87;;;14.40;78.10;;;;;;5056891;28;20487;-58
2023/06/04 05:02:16;;;;;;;3.07;2.40;;;14.50;78.90;;;;;;5057795;28;20478;-58
2023/06/04 05:04:42;;;;;;;4.03;3.03;;;14.60;79.20;;;;;;5058561;28;20493;-58
2023/06/04 05:07:09;;;;;;;8.97;3.83;;;14.80;79.00;;;;;;5068163;28;20474;-58
2023/06/04 05:09:36;;;;;;;4.10;2.80;;;15.00;79.80;;;;;;5065708;28;20491;-58
2023/06/04 05:12:05;;;;;;;4.27;2.60;;;15.10;77.00;;;;;;5062452;28;21139;-58
2023/06/04 05:14:32;;;;;;;4.87;2.87;;;15.20;77.60;;;;;;5058195;28;20487;-58
2023/06/04 05:16:59;;;;;;;8.97;3.03;;;15.20;77.40;;;;;;5065112;28;20573;-58
2023/06/04 05:19:26;;;;;;;4.10;2.73;;;15.30;77.10;;;;;;5061639;28;20492;-58
2023/06/04 05:21:53;;;;;;;4.77;2.60;;;15.30;77.30;;;;;;5080835;28;20925;-58
2023/06/04 05:24:20;;;;;;;8.63;2.93;;;15.40;76.00;;;;;;5060916;28;20478;-58
2023/06/04 05:26:48;;;;;;;3.67;2.80;;;15.40;76.60;;;;;;5065035;28;20478;-58
2023/06/04 05:29:16;;;;;;;3.43;2.37;;;15.50;76.80;;;;;;5058444;28;20540;-58
2023/06/04 05:31:43;;;;;;;3.00;2.63;;;15.60;77.30;;;;;;5058101;28;20478;-58
2023/06/04 05:34:15;;;;;;;6.40;2.90;;;15.60;77.20;;;;;;5062814;28;20478;-58
2023/06/04 05:36:43;;;;;;;7.13;2.60;;;15.70;76.50;;;;;;5049116;28;20480;-58
2023/06/04 05:39:10;;;;;;;4.93;2.50;;;15.70;75.90;;;;;;5069141;28;20479;-58
2023/06/04 05:41:37;;;;;;;3.70;2.60;;;15.80;75.00;;;;;;5061444;28;20565;-58
2023/06/04 05:44:05;;;;;;;5.80;1.90;;;15.80;74.80;;;;;;5058131;28;20990;-59
2023/06/04 05:46:33;;;;;;;4.83;2.23;;;15.90;75.20;;;;;;5065698;28;20660;-59
2023/06/04 05:49:00;;;;;;;6.67;2.30;;;16.00;74.30;;;;;;5062279;28;20479;-59
2023/06/04 05:51:27;;;;;;;3.57;2.37;;;16.10;75.20;;;;;;5046840;28;20561;-59
2023/06/04 05:53:53;;;;;;;4.00;2.13;;;16.20;73.20;;;;;;5067581;28;21034;-59
2023/06/04 05:56:21;;;;;;;8.90;2.50;;;16.40;74.20;;;;;;5063435;28;20478;-59
2023/06/04 05:58:52;;;;;;;4.20;2.20;;;16.50;74.70;;;;;;5068383;28;20479;-59
2023/06/04 06:01:19;;;;;;;4.97;2.23;;;16.60;73.30;;;;;;5065110;28;20485;-58
2023/06/04 06:03:48;;;;;;;5.20;2.23;;;16.70;73.70;;;;;;5034691;28;20475;-60
2023/06/04 06:06:14;;;;;;;4.13;2.30;;;16.70;72.90;;;;;;5064833;28;20779;-58
2023/06/04 06:08:41;;;;;;;3.27;2.10;;;16.90;71.80;;;;;;5047986;28;20481;-60
2023/06/04 06:11:09;;;;;;;8.80;2.73;;;17.00;73.00;;;;;;5067137;28;20474;-60
2023/06/04 06:13:35;;;;;;;5.73;1.97;;;17.00;73.60;;;;;;5044280;28;20824;-58
2023/06/04 06:16:03;;;;;;;8.33;2.40;;;17.30;73.10;;;;;;5067859;28;20488;-59
2023/06/04 06:18:30;;;;;;;5.43;2.13;;;17.30;73.30;;;;;;5064965;28;20466;-59
2023/06/04 06:20:58;;;;;;;4.83;2.50;;;17.30;71.00;;;;;;5054964;28;20747;-59
2023/06/04 06:23:25;;;;;;;5.23;2.20;;;17.50;72.60;;;;;;5066710;28;21241;-59
2023/06/04 06:25:52;;;;;;;7.57;2.77;;;17.60;73.30;;;;;;5055275;28;20482;-60
2023/06/04 06:28:18;;;;;;;5.07;2.30;;;17.80;73.00;;;;;;5055137;28;20871;-60
2023/06/04 06:30:45;;;;;;;4.23;1.70;;;17.90;72.80;;;;;;5058515;28;20462;-59
2023/06/04 06:33:13;;;;;;;7.23;2.20;;;18.00;71.40;;;;;;5060195;28;20481;-59
2023/06/04 06:35:39;;;;;;;5.70;1.97;;;18.10;71.10;;;;;;5066516;28;20475;-59
2023/06/04 06:38:08;;;;;;;4.00;1.77;;;18.20;73.00;;;;;;5054340;28;20482;-59
2023/06/04 06:40:35;;;;;;;4.53;1.63;;;18.20;70.60;;;;;;5059811;28;20491;-59
2023/06/04 06:43:01;;;;;;;4.10;2.53;;;18.20;69.10;;;;;;5064044;28;20480;-58
2023/06/04 06:45:28;;;;;;;4.43;2.40;;;18.30;69.70;;;;;;5064511;28;21010;-58
2023/06/04 06:47:55;;;;;;;3.40;1.80;;;18.30;69.50;;;;;;5064760;28;20566;-58
2023/06/04 06:50:22;;;;;;;2.80;1.93;;;18.30;69.00;;;;;;5062310;28;20485;-58
2023/06/04 06:52:49;;;;;;;4.25;3.15;;;18.50;70.20;;;;;;5073069;28;20484;-58
2023/06/04 06:55:17;;;;;;;9.50;2.60;;;18.50;71.20;;;;;;5058136;28;20828;-58
2023/06/04 06:57:45;;;;;;;6.67;2.30;;;18.70;70.90;;;;;;5067586;28;20490;-58
2023/06/04 07:00:12;;;;;;;5.03;2.40;;;18.90;70.90;;;;;;5068640;28;20465;-58
2023/06/04 07:02:39;;;;;;;5.87;2.03;;;19.20;70.60;;;;;;5067233;28;20486;-59
2023/06/04 07:05:06;;;;;;;4.10;1.70;;;19.40;69.80;;;;;;5055173;28;20506;-58
2023/06/04 07:07:33;;;;;;;5.07;2.77;;;19.60;69.40;;;;;;5044721;28;21239;-58
2023/06/04 07:10:00;;;;;;;8.20;1.53;;;19.80;68.60;;;;;;5065197;28;21109;-58
2023/06/04 07:12:29;;;;;;;3.80;1.77;;;19.90;68.60;;;;;;5067164;28;20507;-58
2023/06/04 07:14:55;;;;;;;3.17;1.87;;;20.10;68.40;;;;;;5034829;28;20490;-58
2023/06/04 07:17:22;;;;;;;2.57;1.73;;;20.30;67.00;;;;;;5063274;28;20489;-58
2023/06/04 07:19:49;;;;;;;3.93;1.50;;;20.40;67.30;;;;;;5053651;28;20528;-58
2023/06/04 07:22:16;;;;;;;6.70;2.43;;;20.60;67.20;;;;;;5068021;28;20586;-58
2023/06/04 07:24:43;;;;;;;4.57;1.90;;;20.70;65.60;;;;;;5072174;28;20841;-59
2023/06/04 07:27:13;;;;;;;3.10;2.00;;;20.80;68.20;;;;;;5063747;28;20478;-58
2023/06/04 07:29:43;;;;;;;2.93;2.40;;;21.00;66.90;;;;;;5066838;28;21478;-59
2023/06/04 07:32:10;;;;;;;3.20;2.10;;;21.10;68.70;;;;;;5064809;28;20474;-59
2023/06/04 07:34:37;;;;;;;4.93;2.53;;;21.40;65.90;;;;;;5062543;28;20475;-59
2023/06/04 07:37:05;;;;;;;4.33;2.10;;;21.70;65.10;;;;;;5065650;28;20474;-59
2023/06/04 07:39:31;;;;;;;5.80;2.00;;;21.70;66.80;;;;;;5064536;28;20485;-59
2023/06/04 07:41:58;;;;;;;3.87;2.27;;;21.90;65.70;;;;;;5065176;28;20478;-59
2023/06/04 07:44:25;;;;;;;9.17;2.17;;;22.00;65.70;;;;;;5068848;28;21574;-59
2023/06/04 07:46:53;;;;;;;5.53;1.90;;;22.10;64.70;;;;;;5070605;28;20473;-59
2023/06/04 07:49:20;;;;;;;3.57;2.20;;;22.30;65.80;;;;;;5056199;28;20472;-59
2023/06/04 07:51:47;;;;;;;2.83;1.97;;;22.30;63.80;;;;;;5063006;28;20547;-59
2023/06/04 07:54:14;;;;;;;4.00;1.90;;;22.50;64.10;;;;;;5070398;28;20483;-59
2023/06/04 07:56:41;;;;;;;6.90;2.13;;;22.60;64.40;;;;;;5063099;28;20487;-59
2023/06/04 07:59:08;;;;;;;4.70;1.80;;;22.70;66.40;;;;;;5081687;28;20483;-59
2023/06/04 08:01:35;;;;;;;3.70;1.80;;;22.80;65.20;;;;;;5063114;28;20491;-59
2023/06/04 08:04:03;;;;;;;5.33;1.73;;;23.00;64.40;;;;;;5061783;28;20474;-59
2023/06/04 08:06:30;;;;;;;2.87;2.07;;;23.10;64.00;;;;;;5064251;28;21785;-59
2023/06/04 08:08:57;;;;;;;3.43;1.80;;;23.30;64.00;;;;;;5066613;27;20776;-59
2023/06/04 08:11:24;;;;;;;2.70;2.13;;;23.40;62.70;;;;;;5067605;28;20938;-59
2023/06/04 08:13:51;;;;;;;3.00;1.93;;;23.50;64.00;;;;;;5066655;28;20575;-59
2023/06/04 08:16:18;;;;;;;4.53;2.43;;;23.80;65.80;;;;;;5064399;28;20997;-59
2023/06/04 08:18:44;;;;;;;5.50;2.30;;;24.00;65.90;;;;;;5065058;28;20835;-59
2023/06/04 08:21:12;;;;;;;5.47;2.50;;;24.40;64.30;;;;;;5056597;28;20673;-59
2023/06/04 08:23:39;;;;;;;2.90;1.97;;;24.40;63.40;;;;;;5051203;28;20470;-60
2023/06/04 08:26:07;;;;;;;3.60;2.37;;;24.60;64.40;;;;;;5067952;28;20500;-60
2023/06/04 08:28:34;;;;;;;4.20;2.47;;;24.60;66.50;;;;;;5063229;28;20488;-60
2023/06/04 08:31:01;;;;;;;3.77;2.30;;;24.70;64.10;;;;;;5068725;28;20812;-60
2023/06/04 08:33:27;;;;;;;3.80;1.80;;;24.90;64.90;;;;;;5059786;28;20483;-60
2023/06/04 08:35:55;;;;;;;9.03;1.73;;;24.90;62.00;;;;;;5073249;28;20481;-60
2023/06/04 08:38:23;;;;;;;8.47;2.13;;;25.00;62.70;;;;;;5045768;28;20472;-60
2023/06/04 08:40:53;;;;;;;4.07;2.33;;;25.10;62.60;;;;;;5062248;28;20749;-60
2023/06/04 08:43:20;;;;;;;3.57;1.93;;;25.30;64.80;;;;;;5057623;28;20476;-61
2023/06/04 08:45:50;;;;;;;5.40;1.97;;;25.40;63.40;;;;;;5062383;28;20514;-60
2023/06/04 08:48:21;;;;;;;6.50;2.90;;;25.50;63.40;;;;;;5071977;28;20483;-61
2023/06/04 08:50:49;;;;;;;3.80;1.80;;;25.70;63.00;;;;;;5059403;28;20502;-61
2023/06/04 08:53:16;;;;;;;3.03;2.30;;;25.70;62.20;;;;;;5070914;28;20467;-61
2023/06/04 08:55:44;;;;;;;3.73;2.33;;;25.60;64.10;;;;;;5056909;28;20662;-60
2023/06/04 08:58:12;;;;;;;3.90;2.43;;;25.70;62.40;;;;;;5075938;28;20852;-59
2023/06/04 09:00:39;;;;;;;14.93;2.40;;;25.70;62.50;;;;;;5066931;28;20493;-60
2023/06/04 09:03:06;;;;;;;4.00;2.40;;;25.70;61.80;;;;;;5068737;28;21011;-59
2023/06/04 09:05:34;;;;;;;2.77;1.97;;;25.70;61.60;;;;;;5059752;28;20546;-60
2023/06/04 09:08:04;;;;;;;4.03;2.20;;;25.80;63.60;;;;;;5040568;28;20614;-60
2023/06/04 09:10:33;;;;;;;2.97;2.67;;;25.90;64.60;;;;;;5075959;28;20953;-59
2023/06/04 09:13:03;;;;;;;4.73;2.47;;;26.00;62.10;;;;;;5073602;28;20477;-59
2023/06/04 09:15:30;;;;;;;2.83;2.27;;;26.00;61.00;;;;;;5063662;28;20488;-60
2023/06/04 09:17:57;;;;;;;3.07;2.00;;;26.00;63.30;;;;;;5062869;28;20489;-59
2023/06/04 09:20:24;;;;;;;5.50;2.10;;;26.00;62.50;;;;;;5061732;28;20489;-60
2023/06/04 09:22:52;;;;;;;3.50;2.17;;;26.00;64.40;;;;;;5064378;28;20827;-60
2023/06/04 09:25:23;;;;;;;3.97;2.33;;;26.20;65.70;;;;;;5062882;28;21058;-60
2023/06/04 09:27:50;;;;;;;5.23;2.30;;;26.20;61.30;;;;;;5065320;28;20813;-59
2023/06/04 09:30:18;;;;;;;5.13;2.47;;;26.40;64.20;;;;;;5057722;28;20519;-59
2023/06/04 09:32:45;;;;;;;4.23;2.50;;;26.50;61.70;;;;;;5059107;28;20511;-60
2023/06/04 09:35:14;;;;;;;2.70;2.00;;;26.60;63.20;;;;;;5050618;28;20484;-59
2023/06/04 09:37:41;;;;;;;3.33;1.90;;;26.80;63.50;;;;;;5059507;28;20481;-59
2023/06/04 09:40:09;;;;;;;3.43;2.07;;;26.70;65.00;;;;;;5055583;28;20567;-59
2023/06/04 09:42:46;;;;;;;2.60;2.17;;;26.70;60.80;;;;;;5058038;28;20479;-59
2023/06/04 09:45:13;;;;;;;6.27;2.40;;;26.80;61.00;;;;;;5054658;28;20487;-59
2023/06/04 09:47:42;;;;;;;6.40;3.27;;;26.90;61.50;;;;;;5039103;28;20473;-59
2023/06/04 09:50:11;;;;;;;3.80;2.60;;;27.00;60.40;;;;;;5046406;28;20464;-59
2023/06/04 09:52:40;;;;;;;5.70;2.87;;;27.20;61.60;;;;;;5061985;28;21080;-60
2023/06/04 09:55:19;;;;;;;4.27;2.50;;;27.20;62.80;;;;;;5055133;28;20492;-60
2023/06/04 09:57:48;;;;;;;10.60;2.97;;;27.50;63.30;;;;;;5057618;28;20496;-60
2023/06/04 10:00:17;;;;;;;4.07;2.10;;;27.60;60.20;;;;;;5038250;28;20797;-59
2023/06/04 10:02:48;;;;;;;3.57;3.27;;;27.80;57.50;;;;;;5037045;28;20484;-59
2023/06/04 10:05:16;;;;;;;4.60;3.10;;;27.70;58.40;;;;;;5044889;28;20513;-59
2023/06/04 10:07:44;;;;;;;5.00;3.07;;;27.80;56.10;;;;;;5061431;28;20516;-60
2023/06/04 10:10:16;;;;;;;5.30;2.60;;;27.80;55.20;;;;;;5050353;28;20505;-60
2023/06/04 10:12:44;;;;;;;5.87;2.73;;;27.90;53.60;;;;;;5062757;28;20572;-60
2023/06/04 10:15:13;;;;;;;7.27;2.53;;;27.80;53.90;;;;;;5065660;28;20470;-60
2023/06/04 10:17:40;;;;;;;4.80;3.30;;;27.50;52.30;;;;;;5023083;28;20486;-60
2023/06/04 10:20:10;;;;;;;9.50;3.27;;;27.70;54.60;;;;;;5044098;28;20480;-60
2023/06/04 10:22:38;;;;;;;3.73;2.80;;;27.70;53.30;;;;;;5040076;28;20470;-60
2023/06/04 10:25:06;;;;;;;3.50;2.53;;;27.70;54.70;;;;;;5032176;28;21921;-60
2023/06/04 10:27:34;;;;;;;7.30;2.90;;;27.80;54.50;;;;;;5029815;28;20485;-60
2023/06/04 10:30:02;;;;;;;7.33;3.03;;;27.70;54.30;;;;;;5046998;28;21431;-60
2023/06/04 10:32:30;;;;;;;4.90;2.83;;;27.80;53.40;;;;;;5055703;28;20911;-61
2023/06/04 10:34:58;;;;;;;3.23;2.30;;;27.80;53.40;;;;;;5063402;28;21071;-61
2023/06/04 10:37:29;;;;;;;3.90;2.60;;;27.80;54.80;;;;;;5065253;28;20645;-60
2023/06/04 10:39:57;;;;;;;7.53;3.00;;;27.90;54.40;;;;;;5052917;28;20897;-61
2023/06/04 10:42:25;;;;;;;6.30;2.70;;;27.80;53.10;;;;;;5068385;28;20493;-60
2023/06/04 10:44:53;;;;;;;7.47;3.40;;;27.60;54.20;;;;;;5064749;28;20475;-61
2023/06/04 10:47:21;;;;;;;5.90;2.70;;;27.70;53.70;;;;;;5063995;28;20485;-61
2023/06/04 10:49:48;;;;;;;4.37;2.40;;;27.70;54.20;;;;;;5061368;28;20790;-61
2023/06/04 10:52:15;;;;;;;5.03;3.53;;;27.80;55.10;;;;;;5052537;28;20485;-61
2023/06/04 10:54:45;;;;;;;7.30;2.93;;;27.90;56.60;;;;;;5073512;28;21110;-62
2023/06/04 10:57:13;;;;;;;5.53;3.37;;;27.80;55.50;;;;;;5059022;28;20489;-61
2023/06/04 10:59:40;;;;;;;3.67;3.30;;;27.90;54.40;;;;;;5046455;28;20980;-61
2023/06/04 11:02:07;;;;;;;10.67;3.13;;;27.90;54.10;;;;;;5049003;28;20517;-61
2023/06/04 11:04:34;;;;;;;6.57;3.60;;;27.90;53.70;;;;;;5054143;28;20474;-62
2023/06/04 11:07:08;;;;;;;4.47;3.03;;;28.00;53.90;;;;;;5075278;27;20455;-61
2023/06/04 11:09:36;;;;;;;5.37;3.10;;;28.00;55.20;;;;;;5069260;28;20966;-61
2023/06/04 11:12:06;;;;;;;4.40;3.37;;;28.00;54.90;;;;;;5045316;28;20481;-61
2023/06/04 11:14:33;;;;;;;3.70;2.53;;;28.00;54.60;;;;;;5076132;28;20477;-61
2023/06/04 11:17:10;;;;;;;3.40;3.10;;;28.10;53.60;;;;;;5057663;28;20485;-61
2023/06/04 11:19:37;;;;;;;4.33;2.80;;;28.00;54.80;;;;;;5072333;28;20817;-61
2023/06/04 11:22:04;;;;;;;6.97;3.53;;;28.30;56.10;;;;;;5062884;28;20488;-61
2023/06/04 11:24:31;;;;;;;5.17;3.00;;;28.00;54.00;;;;;;5055876;28;20462;-61
2023/06/04 11:26:59;;;;;;;5.37;3.50;;;28.00;53.90;;;;;;5072813;28;20476;-60
2023/06/04 11:29:28;;;;;;;3.03;2.73;;;28.20;55.10;;;;;;5048969;28;20550;-61
2023/06/04 11:31:55;;;;;;;5.30;2.63;;;28.20;55.00;;;;;;5073055;28;20917;-61
2023/06/04 11:35:19;;;;;;;4.40;2.97;;;28.20;53.20;;;;;;5063737;28;20480;-60
2023/06/04 11:37:55;;;;;;;3.27;2.77;;;28.30;55.30;;;;;;5062695;28;20481;-60
2023/06/04 11:40:22;;;;;;;4.90;3.43;;;28.50;55.20;;;;;;5068097;28;20532;-60
2023/06/04 11:42:50;;;;;;;5.20;3.13;;;28.40;53.70;;;;;;5069167;28;20480;-60
2023/06/04 11:45:19;;;;;;;11.43;3.10;;;28.40;52.10;;;;;;5069576;28;20477;-60
2023/06/04 11:47:48;;;;;;;5.40;2.90;;;28.40;53.70;;;;;;5070134;28;20511;-61
2023/06/04 11:50:15;;;;;;;4.90;2.77;;;28.50;55.50;;;;;;5074407;28;20455;-61
2023/06/04 11:52:42;;;;;;;6.30;3.07;;;28.50;52.20;;;;;;5053380;28;20494;-60
2023/06/04 11:55:10;;;;;;;5.03;3.73;;;28.50;53.00;;;;;;5070748;28;20911;-61
2023/06/04 11:57:37;;;;;;;5.47;3.23;;;28.60;53.50;;;;;;5066276;28;20813;-60
2023/06/04 12:00:08;;;;;;;4.50;3.50;;;28.50;53.80;;;;;;5067066;28;20524;-61
2023/06/04 12:02:37;;;;;;;4.83;3.00;;;28.50;52.10;;;;;;5064386;28;20858;-60
2023/06/04 12:05:14;;;;;;;4.50;3.00;;;28.10;50.80;;;;;;5070845;28;20477;-60
2023/06/04 12:07:41;;;;;;;4.20;3.80;;;28.30;54.50;;;;;;5068388;28;20541;-60
2023/06/04 12:10:08;;;;;;;4.00;3.20;;;28.50;53.50;;;;;;5061949;28;20485;-61
2023/06/04 12:12:36;;;;;;;13.30;3.90;;;28.60;54.30;;;;;;5068384;28;20617;-60
2023/06/04 12:15:05;;;;;;;7.80;4.63;;;28.70;54.80;;;;;;5064521;28;20499;-60
2023/06/04 12:17:32;;;;;;;12.33;4.37;;;28.50;53.70;;;;;;5068750;28;21082;-60
2023/06/04 12:20:01;;;;;;;3.50;3.20;;;28.70;54.80;;;;;;5065074;28;20851;-60
2023/06/04 12:22:28;;;;;;;4.13;3.43;;;28.70;55.00;;;;;;5069077;28;20834;-60
2023/06/04 12:24:57;;;;;;;4.13;3.47;;;28.80;57.10;;;;;;5064487;28;20838;-61
2023/06/04 12:27:26;;;;;;;4.37;3.13;;;28.70;54.60;;;;;;5067198;28;20785;-60
2023/06/04 12:29:57;;;;;;;3.37;3.07;;;28.70;54.10;;;;;;5065305;28;20550;-60
2023/06/04 12:32:23;;;;;;;9.37;4.10;;;29.00;55.90;;;;;;5057227;28;20469;-60
2023/06/04 12:34:50;;;;;;;5.80;3.33;;;29.00;53.40;;;;;;5052992;28;20452;-60
2023/06/04 12:37:19;;;;;;;5.90;3.77;;;29.00;54.80;;;;;;5032401;28;21036;-61
2023/06/04 12:39:45;;;;;;;4.40;3.37;;;28.90;53.80;;;;;;5062571;28;21014;-61
2023/06/04 12:42:12;;;;;;;4.83;4.33;;;28.90;52.90;;;;;;5072823;28;21107;-61
2023/06/04 12:44:40;;;;;;;5.00;3.80;;;29.10;55.80;;;;;;5058407;28;20485;-62
2023/06/04 12:47:07;;;;;;;11.43;3.83;;;29.10;55.00;;;;;;5069655;28;20468;-60
2023/06/04 12:49:36;;;;;;;5.00;3.80;;;29.10;54.50;;;;;;5057233;28;20504;-60